KLO weather

Kalibo International Airport
Kalibo, Aklan Province, Philippines

Public forecast

Using degrees Celsius for public forecast. Weather courtesy of forecast.io.

METAR (pilot weather report)

Report is more than 6 hours old.

Retrieved 2019/01/10 14:00 UTC (8 days ago):

RPVK 101400Z 32004KT 9999 SCT020 BKN300 25/20 Q1017 NOSIG RMK A3003

TAF (pilot weather forecast)

Retrieved 2019/01/18 18:10 UTC (5 hours ago):

TAF RPVK 181700Z 1818/1918 05010KT 9999 FEW016 BKN220 TEMPO 1818/1824 07005KT FEW015CB SCT016 BKN070 OVC220